createdAt,value
2024-04-07T00:00:54.809Z,1.30
2024-04-07T00:01:54.779Z,1.00
2024-04-07T00:02:54.760Z,0.90
2024-04-07T00:03:54.744Z,0.80
2024-04-07T00:04:54.731Z,1.40
2024-04-07T00:05:57.278Z,1.30
2024-04-07T00:06:54.733Z,0.90
2024-04-07T00:07:54.707Z,1.00
2024-04-07T00:08:54.713Z,1.10
2024-04-07T00:09:54.680Z,1.00
2024-04-07T00:10:54.735Z,1.00
2024-04-07T00:11:54.691Z,0.90
2024-04-07T00:12:54.695Z,0.90
2024-04-07T00:13:54.648Z,1.00
2024-04-07T00:14:54.634Z,1.20
2024-04-07T00:15:54.628Z,0.90
2024-04-07T00:16:54.610Z,1.10
2024-04-07T00:17:54.606Z,1.10
2024-04-07T00:18:54.617Z,1.00
2024-04-07T00:19:54.938Z,0.90
2024-04-07T00:20:54.573Z,1.00
2024-04-07T00:21:54.561Z,1.20
2024-04-07T00:22:54.632Z,1.00
2024-04-07T00:23:54.548Z,1.10
2024-04-07T00:24:54.561Z,1.10
2024-04-07T00:25:54.527Z,1.10
2024-04-07T00:26:54.526Z,0.90
2024-04-07T00:27:54.520Z,1.00
2024-04-07T00:28:54.501Z,0.90
2024-04-07T00:29:54.501Z,1.10
2024-04-07T00:30:54.495Z,1.00
2024-04-07T00:31:54.467Z,1.30
2024-04-07T00:32:54.499Z,1.10
2024-04-07T00:33:54.455Z,1.30
2024-04-07T00:34:54.448Z,1.10
2024-04-07T00:35:54.440Z,1.10
2024-04-07T00:36:54.453Z,1.20
2024-04-07T00:37:54.410Z,1.10
2024-04-07T00:38:54.400Z,1.10
2024-04-07T00:39:54.388Z,1.00
2024-04-07T00:40:56.670Z,1.10
2024-04-07T00:41:54.373Z,1.60
2024-04-07T00:42:54.391Z,0.90
2024-04-07T00:43:54.349Z,1.30
2024-04-07T00:44:54.351Z,1.20
2024-04-07T00:45:54.327Z,1.00
2024-04-07T00:46:54.349Z,0.90
2024-04-07T00:47:54.315Z,1.10
2024-04-07T00:48:54.353Z,1.00
2024-04-07T00:49:54.311Z,1.10
2024-04-07T00:50:54.287Z,0.90
2024-04-07T00:51:54.275Z,1.20
2024-04-07T00:52:54.279Z,1.20
2024-04-07T00:53:54.254Z,1.00
2024-04-07T00:54:54.274Z,0.80
2024-04-07T00:55:54.248Z,1.00
2024-04-07T00:56:54.219Z,0.90
2024-04-07T00:57:54.236Z,1.00
2024-04-07T00:58:54.207Z,1.30
2024-04-07T00:59:54.210Z,1.10
2024-04-07T01:00:54.215Z,1.20
2024-04-07T01:01:54.172Z,1.10
2024-04-07T01:02:54.159Z,1.00
2024-04-07T01:03:54.157Z,2.20
2024-04-07T01:04:54.145Z,1.00
2024-04-07T01:05:57.571Z,1.20
2024-04-07T01:06:54.146Z,1.10
2024-04-07T01:07:54.131Z,1.00
2024-04-07T01:08:54.107Z,1.20
2024-04-07T01:09:54.129Z,1.30
2024-04-07T01:10:54.147Z,0.90
2024-04-07T01:11:54.086Z,1.00
2024-04-07T01:12:54.093Z,1.00
2024-04-07T01:13:54.051Z,0.70
2024-04-07T01:14:54.049Z,1.30
2024-04-07T01:15:54.045Z,1.10
2024-04-07T01:16:54.039Z,1.10
2024-04-07T01:17:54.024Z,1.10
2024-04-07T01:18:54.055Z,1.00
2024-04-07T01:19:54.013Z,1.00
2024-04-07T01:20:53.991Z,1.10
2024-04-07T01:21:53.980Z,1.10
2024-04-07T01:22:53.970Z,1.10
2024-04-07T01:23:53.956Z,0.90
2024-04-07T01:24:53.965Z,1.00
2024-04-07T01:25:53.988Z,0.90
2024-04-07T01:26:53.939Z,1.00
2024-04-07T01:27:53.930Z,1.00
2024-04-07T01:28:53.932Z,1.10
2024-04-07T01:29:53.905Z,1.00
2024-04-07T01:30:53.914Z,0.80
2024-04-07T01:31:53.916Z,0.80
2024-04-07T01:32:53.879Z,1.10
2024-04-07T01:33:53.868Z,1.00
2024-04-07T01:34:53.865Z,1.20
2024-04-07T01:35:53.886Z,1.40
2024-04-07T01:36:53.884Z,0.80
2024-04-07T01:37:53.829Z,1.20
2024-04-07T01:38:53.814Z,1.50
2024-04-07T01:39:53.805Z,0.90
2024-04-07T01:40:53.803Z,1.00
2024-04-07T01:41:53.783Z,1.00
2024-04-07T01:42:53.801Z,0.80
2024-04-07T01:43:53.772Z,1.20
2024-04-07T01:44:53.756Z,1.10
2024-04-07T01:45:53.753Z,0.90
2024-04-07T01:46:53.743Z,0.90
2024-04-07T01:47:53.757Z,1.10
2024-04-07T01:48:53.781Z,1.10
2024-04-07T01:49:53.720Z,0.90
2024-04-07T01:50:53.697Z,1.00
2024-04-07T01:51:53.696Z,1.00
2024-04-07T01:52:53.678Z,1.20
2024-04-07T01:53:53.678Z,1.10
2024-04-07T01:54:53.685Z,0.80
2024-04-07T01:55:53.647Z,0.90
2024-04-07T01:56:53.639Z,0.90
2024-04-07T01:57:53.666Z,1.20
2024-04-07T01:58:53.617Z,0.70
2024-04-07T01:59:53.616Z,0.80
2024-04-07T02:00:53.626Z,0.80
2024-04-07T02:01:53.591Z,0.80
2024-04-07T02:02:53.580Z,1.40
2024-04-07T02:03:53.581Z,0.90
2024-04-07T02:04:53.614Z,0.80
2024-04-07T02:05:53.577Z,0.80
2024-04-07T02:06:53.573Z,1.00
2024-04-07T02:07:53.529Z,0.90
2024-04-07T02:08:53.519Z,0.70
2024-04-07T02:09:53.506Z,1.00
2024-04-07T02:10:53.509Z,1.00
2024-04-07T02:11:53.489Z,0.70
2024-04-07T02:12:53.522Z,1.00
2024-04-07T02:13:53.466Z,0.90
2024-04-07T02:14:53.464Z,0.90
2024-04-07T02:15:53.453Z,1.00
2024-04-07T02:16:53.445Z,1.00
2024-04-07T02:17:53.440Z,1.00
2024-04-07T02:18:53.468Z,0.70
2024-04-07T02:19:53.416Z,0.80
2024-04-07T02:20:53.411Z,1.10
2024-04-07T02:21:53.404Z,0.80
2024-04-07T02:22:53.391Z,0.80
2024-04-07T02:23:53.372Z,1.00
2024-04-07T02:24:53.401Z,0.80
2024-04-07T02:25:53.360Z,0.90
2024-04-07T02:26:53.339Z,0.70
2024-04-07T02:27:53.329Z,0.90
2024-04-07T02:28:53.318Z,1.00
2024-04-07T02:29:53.325Z,0.80
2024-04-07T02:30:53.352Z,0.70
2024-04-07T02:31:53.288Z,0.90
2024-04-07T02:32:53.287Z,0.90
2024-04-07T02:33:53.276Z,1.00
2024-04-07T02:34:53.264Z,0.90
2024-04-07T02:35:53.266Z,1.10
2024-04-07T02:36:53.270Z,1.00
2024-04-07T02:37:53.235Z,0.80
2024-04-07T02:38:53.231Z,0.70
2024-04-07T02:39:53.216Z,0.90
2024-04-07T02:40:53.220Z,0.70
2024-04-07T02:41:53.192Z,0.80
2024-04-07T02:42:53.260Z,0.80
2024-04-07T02:43:53.172Z,0.90
2024-04-07T02:44:53.168Z,0.70
2024-04-07T02:45:53.160Z,0.80
2024-04-07T02:46:53.155Z,0.80
2024-04-07T02:47:53.143Z,0.70
2024-04-07T02:48:53.185Z,1.00
2024-04-07T02:49:53.119Z,0.90
2024-04-07T02:50:53.104Z,1.00
2024-04-07T02:51:53.098Z,0.70
2024-04-07T02:52:53.085Z,0.90
2024-04-07T02:53:55.472Z,1.00
2024-04-07T02:54:53.113Z,1.10
2024-04-07T02:55:53.061Z,0.80
2024-04-07T02:56:53.052Z,0.70
2024-04-07T02:57:53.044Z,0.90
2024-04-07T02:58:53.097Z,0.80
2024-04-07T02:59:53.013Z,0.90
2024-04-07T03:00:53.071Z,1.00
2024-04-07T03:01:53.011Z,0.80
2024-04-07T03:02:52.982Z,0.80
2024-04-07T03:03:52.983Z,1.40
2024-04-07T03:04:52.982Z,0.90
2024-04-07T03:05:52.959Z,1.10
2024-04-07T03:06:52.992Z,0.80
2024-04-07T03:07:52.960Z,0.90
2024-04-07T03:08:52.931Z,0.80
2024-04-07T03:09:52.913Z,0.80
2024-04-07T03:10:52.951Z,0.90
2024-04-07T03:11:52.903Z,0.70
2024-04-07T03:12:52.914Z,0.80
2024-04-07T03:13:52.898Z,0.90
2024-04-07T03:14:52.884Z,0.80
2024-04-07T03:15:52.855Z,0.90
2024-04-07T03:16:52.903Z,0.70
2024-04-07T03:17:52.858Z,0.70
2024-04-07T03:18:52.843Z,0.90
2024-04-07T03:19:52.840Z,0.70
2024-04-07T03:20:52.807Z,0.90
2024-04-07T03:21:52.794Z,0.70
2024-04-07T03:22:52.792Z,0.90
2024-04-07T03:23:52.813Z,1.00
2024-04-07T03:24:52.782Z,1.40
2024-04-07T03:25:52.797Z,0.90
2024-04-07T03:26:52.750Z,0.90
2024-04-07T03:27:52.735Z,0.90
2024-04-07T03:28:52.773Z,0.90
2024-04-07T03:29:52.717Z,0.90
2024-04-07T03:30:52.738Z,0.80
2024-04-07T03:31:52.743Z,0.60
2024-04-07T03:32:52.686Z,0.80
2024-04-07T03:33:52.681Z,1.30
2024-04-07T03:34:52.731Z,1.00
2024-04-07T03:35:52.681Z,0.60
2024-04-07T03:36:52.666Z,0.90
2024-04-07T03:37:52.641Z,0.80
2024-04-07T03:38:52.634Z,0.80
2024-04-07T03:39:52.621Z,0.70
2024-04-07T03:40:52.618Z,1.10
2024-04-07T03:41:52.651Z,0.80
2024-04-07T03:42:52.608Z,0.90
2024-04-07T03:43:52.627Z,0.90
2024-04-07T03:44:52.575Z,0.70
2024-04-07T03:45:52.565Z,0.70
2024-04-07T03:46:52.573Z,1.00
2024-04-07T03:47:52.538Z,0.90
2024-04-07T03:48:52.564Z,0.90
2024-04-07T03:49:52.605Z,0.80
2024-04-07T03:50:52.511Z,0.80
2024-04-07T03:51:52.499Z,0.80
2024-04-07T03:52:52.503Z,1.00
2024-04-07T03:53:52.481Z,1.10
2024-04-07T03:54:52.519Z,1.00
2024-04-07T03:55:52.460Z,1.00
2024-04-07T03:56:52.462Z,0.80
2024-04-07T03:57:52.439Z,1.20
2024-04-07T03:58:52.475Z,0.90
2024-04-07T03:59:52.424Z,1.00
2024-04-07T04:00:52.429Z,1.00
2024-04-07T04:01:52.436Z,1.10
2024-04-07T04:02:52.395Z,1.00
2024-04-07T04:03:52.407Z,0.90
2024-04-07T04:04:52.400Z,1.00
2024-04-07T04:05:52.365Z,1.10
2024-04-07T04:06:52.396Z,1.20
2024-04-07T04:07:52.423Z,1.00
2024-04-07T04:08:52.338Z,0.70
2024-04-07T04:09:52.335Z,0.80
2024-04-07T04:10:52.330Z,1.30
2024-04-07T04:11:52.261Z,1.20
2024-04-07T04:12:52.290Z,1.10
2024-04-07T04:13:52.384Z,1.00
2024-04-07T04:14:52.217Z,1.10
2024-04-07T04:15:52.227Z,1.10
2024-04-07T04:16:52.268Z,1.70
2024-04-07T04:17:52.187Z,1.30
2024-04-07T04:18:52.199Z,0.90
2024-04-07T04:19:52.229Z,1.20
2024-04-07T04:20:52.164Z,1.10
2024-04-07T04:21:52.158Z,1.00
2024-04-07T04:22:52.227Z,1.10
2024-04-07T04:23:52.138Z,1.20
2024-04-07T04:24:52.139Z,1.10
2024-04-07T04:25:52.179Z,1.20
2024-04-07T04:26:52.111Z,1.00
2024-04-07T04:27:52.135Z,1.30
2024-04-07T04:28:52.137Z,1.40
2024-04-07T04:29:52.076Z,1.30
2024-04-07T04:30:52.081Z,1.20
2024-04-07T04:31:52.079Z,1.30
2024-04-07T04:32:52.054Z,1.50
2024-04-07T04:33:52.030Z,1.50
2024-04-07T04:34:52.034Z,1.50
2024-04-07T04:35:52.013Z,1.70
2024-04-07T04:36:52.030Z,1.60
2024-04-07T04:37:52.026Z,1.50
2024-04-07T04:38:52.010Z,1.50
2024-04-07T04:39:51.976Z,1.60
2024-04-07T04:40:52.013Z,1.80
2024-04-07T04:41:51.964Z,1.80
2024-04-07T04:42:51.965Z,1.40
2024-04-07T04:43:51.990Z,1.90
2024-04-07T04:44:51.926Z,1.50
2024-04-07T04:45:51.918Z,1.50
2024-04-07T04:46:51.933Z,1.40
2024-04-07T04:47:51.895Z,1.60
2024-04-07T04:48:51.927Z,1.90
2024-04-07T04:49:51.891Z,1.20
2024-04-07T04:50:51.868Z,1.20
2024-04-07T04:51:51.859Z,1.80
2024-04-07T04:52:53.637Z,1.30
2024-04-07T04:53:51.833Z,1.30
2024-04-07T04:54:51.849Z,1.60
2024-04-07T04:55:51.853Z,1.40
2024-04-07T04:56:51.810Z,1.50
2024-04-07T04:57:51.819Z,1.60
2024-04-07T04:58:51.795Z,1.60
2024-04-07T04:59:51.778Z,2.00
2024-04-07T05:00:51.814Z,1.60
2024-04-07T05:01:51.789Z,1.30
2024-04-07T05:02:51.758Z,1.60
2024-04-07T05:03:51.744Z,1.60
2024-04-07T05:04:51.797Z,1.30
2024-04-07T05:05:51.748Z,1.20
2024-04-07T05:06:51.733Z,1.60
2024-04-07T05:07:51.722Z,1.20
2024-04-07T05:08:51.691Z,1.30
2024-04-07T05:09:51.691Z,1.20
2024-04-07T05:10:51.753Z,1.20
2024-04-07T05:11:51.661Z,1.30
2024-04-07T05:12:51.676Z,1.60
2024-04-07T05:13:51.683Z,1.00
2024-04-07T05:14:51.645Z,1.20
2024-04-07T05:15:51.621Z,1.20
2024-04-07T05:16:51.668Z,1.10
2024-04-07T05:17:51.607Z,1.00
2024-04-07T05:18:51.707Z,1.00
2024-04-07T05:19:51.613Z,1.00
2024-04-07T05:20:51.591Z,1.00
2024-04-07T05:21:51.578Z,0.90
2024-04-07T05:22:51.575Z,1.50
2024-04-07T05:23:51.556Z,0.90
2024-04-07T05:24:51.590Z,1.00
2024-04-07T05:25:51.535Z,1.10
2024-04-07T05:26:51.516Z,1.20
2024-04-07T05:27:51.514Z,1.20
2024-04-07T05:28:51.520Z,1.00
2024-04-07T05:29:51.493Z,1.00
2024-04-07T05:30:51.505Z,1.10
2024-04-07T05:31:51.481Z,1.20
2024-04-07T05:32:51.457Z,1.20
2024-04-07T05:33:51.477Z,1.20
2024-04-07T05:34:51.488Z,1.30
2024-04-07T05:35:51.432Z,0.90
2024-04-07T05:36:51.444Z,1.20
2024-04-07T05:37:51.449Z,1.00
2024-04-07T05:38:51.410Z,1.10
2024-04-07T05:39:51.455Z,0.90
2024-04-07T05:40:51.456Z,1.30
2024-04-07T05:41:51.372Z,1.20
2024-04-07T05:42:51.382Z,0.90
2024-04-07T05:43:51.368Z,1.70
2024-04-07T05:44:51.341Z,1.20
2024-04-07T05:45:51.361Z,1.00
2024-04-07T05:46:51.342Z,1.90
2024-04-07T05:47:51.313Z,1.20
2024-04-07T05:48:51.345Z,1.20
2024-04-07T05:49:51.306Z,1.40
2024-04-07T05:50:51.305Z,1.00
2024-04-07T05:51:51.307Z,1.10
2024-04-07T05:52:51.278Z,1.70
2024-04-07T05:53:51.259Z,0.90
2024-04-07T05:54:51.266Z,0.90
2024-04-07T05:55:51.249Z,1.00
2024-04-07T05:56:51.224Z,1.20
2024-04-07T05:57:51.229Z,0.90
2024-04-07T05:58:51.212Z,0.90
2024-04-07T05:59:51.208Z,1.10
2024-04-07T06:00:51.223Z,1.00
2024-04-07T06:01:51.274Z,1.00
2024-04-07T06:02:51.175Z,1.20
2024-04-07T06:03:51.175Z,0.90
2024-04-07T06:04:51.163Z,1.00
2024-04-07T06:05:51.177Z,0.80
2024-04-07T06:06:51.145Z,1.20
2024-04-07T06:07:51.171Z,1.00
2024-04-07T06:08:51.119Z,1.00
2024-04-07T06:09:51.123Z,0.90
2024-04-07T06:10:51.103Z,0.80
2024-04-07T06:11:51.088Z,1.00
2024-04-07T06:12:51.112Z,0.90
2024-04-07T06:13:51.094Z,0.70
2024-04-07T06:14:51.058Z,1.00
2024-04-07T06:15:51.042Z,0.80
2024-04-07T06:16:51.062Z,1.30
2024-04-07T06:17:51.023Z,0.80
2024-04-07T06:18:51.031Z,0.90
2024-04-07T06:19:51.102Z,1.10
2024-04-07T06:20:52.800Z,0.80
2024-04-07T06:21:50.985Z,0.80
2024-04-07T06:22:51.034Z,0.90
2024-04-07T06:23:50.965Z,0.60
2024-04-07T06:24:50.991Z,1.60
2024-04-07T06:25:50.958Z,0.60
2024-04-07T06:26:50.938Z,0.80
2024-04-07T06:27:50.928Z,0.90
2024-04-07T06:28:50.971Z,0.60
2024-04-07T06:29:50.915Z,0.60
2024-04-07T06:30:50.921Z,0.90
2024-04-07T06:31:50.941Z,0.70
2024-04-07T06:32:50.911Z,0.70
2024-04-07T06:33:50.891Z,0.80
2024-04-07T06:34:50.887Z,0.80
2024-04-07T06:35:50.857Z,0.70
2024-04-07T06:36:50.861Z,0.70
2024-04-07T06:37:50.853Z,0.70
2024-04-07T06:38:50.832Z,1.20
2024-04-07T06:39:50.827Z,0.60
2024-04-07T06:40:50.863Z,0.60
2024-04-07T06:41:50.795Z,0.90
2024-04-07T06:42:50.816Z,0.50
2024-04-07T06:43:50.781Z,0.60
2024-04-07T06:44:50.769Z,0.80
2024-04-07T06:45:50.761Z,0.60
2024-04-07T06:46:50.854Z,0.80
2024-04-07T06:47:50.745Z,0.80
2024-04-07T06:48:50.745Z,0.80
2024-04-07T06:49:50.719Z,0.60
2024-04-07T06:50:50.710Z,0.50
2024-04-07T06:51:50.696Z,0.90
2024-04-07T06:52:50.698Z,0.70
2024-04-07T06:53:50.675Z,0.60
2024-04-07T06:54:50.709Z,0.70
2024-04-07T06:55:50.685Z,0.70
2024-04-07T06:56:50.643Z,1.20
2024-04-07T06:57:52.829Z,0.80
2024-04-07T06:58:50.687Z,0.70
2024-04-07T06:59:50.632Z,0.50
2024-04-07T07:00:50.658Z,1.00
2024-04-07T07:01:50.633Z,0.80
2024-04-07T07:02:50.601Z,1.00
2024-04-07T07:03:50.575Z,0.70
2024-04-07T07:04:50.623Z,0.70
2024-04-07T07:05:50.559Z,0.90
2024-04-07T07:06:50.592Z,0.90
2024-04-07T07:07:50.553Z,0.80
2024-04-07T07:08:50.536Z,0.70
2024-04-07T07:09:50.530Z,0.90
2024-04-07T07:10:50.564Z,0.80
2024-04-07T07:11:50.503Z,0.70
2024-04-07T07:12:50.515Z,0.90
2024-04-07T07:13:50.509Z,1.30
2024-04-07T07:14:50.524Z,0.70
2024-04-07T07:15:50.470Z,0.70
2024-04-07T07:16:50.451Z,0.70
2024-04-07T07:17:50.442Z,0.70
2024-04-07T07:18:50.455Z,0.80
2024-04-07T07:19:50.490Z,0.80
2024-04-07T07:20:50.414Z,0.70
2024-04-07T07:21:50.411Z,0.80
2024-04-07T07:22:50.396Z,0.90
2024-04-07T07:23:50.453Z,0.70
2024-04-07T07:24:50.392Z,0.80
2024-04-07T07:25:50.368Z,0.70
2024-04-07T07:26:50.358Z,0.80
2024-04-07T07:27:50.345Z,1.40
2024-04-07T07:28:50.370Z,1.00
2024-04-07T07:29:50.336Z,1.00
2024-04-07T07:30:50.340Z,1.00
2024-04-07T07:31:50.308Z,0.60
2024-04-07T07:32:50.298Z,0.70
2024-04-07T07:33:50.297Z,0.90
2024-04-07T07:34:50.312Z,0.70
2024-04-07T07:35:50.275Z,0.80
2024-04-07T07:36:50.307Z,0.80
2024-04-07T07:37:50.250Z,0.80
2024-04-07T07:38:50.243Z,0.80
2024-04-07T07:39:50.231Z,0.80
2024-04-07T07:40:50.238Z,1.30
2024-04-07T07:41:50.266Z,1.00
2024-04-07T07:42:50.230Z,0.90
2024-04-07T07:43:50.196Z,0.80
2024-04-07T07:44:50.214Z,1.50
2024-04-07T07:45:50.177Z,0.80
2024-04-07T07:46:50.165Z,0.70
2024-04-07T07:47:50.158Z,0.80
2024-04-07T07:48:50.157Z,1.60
2024-04-07T07:49:50.151Z,0.80
2024-04-07T07:50:50.146Z,1.10
2024-04-07T07:51:50.137Z,0.90
2024-04-07T07:52:50.144Z,1.20
2024-04-07T07:53:50.113Z,0.60
2024-04-07T07:54:50.121Z,1.00
2024-04-07T07:55:50.117Z,1.00
2024-04-07T07:56:50.065Z,0.80
2024-04-07T07:57:50.055Z,0.60
2024-04-07T07:58:50.070Z,0.80
2024-04-07T07:59:50.053Z,0.80
2024-04-07T08:00:50.045Z,0.80
2024-04-07T08:01:50.078Z,0.90
2024-04-07T08:02:50.018Z,1.00
2024-04-07T08:03:50.026Z,1.30
2024-04-07T08:04:50.005Z,0.60
2024-04-07T08:05:49.991Z,0.60
2024-04-07T08:06:50.035Z,0.90
2024-04-07T08:07:49.979Z,0.50
2024-04-07T08:08:49.953Z,1.00
2024-04-07T08:09:52.367Z,0.70
2024-04-07T08:10:49.931Z,0.70
2024-04-07T08:11:49.926Z,0.80
2024-04-07T08:12:49.952Z,0.70
2024-04-07T08:13:49.910Z,0.60
2024-04-07T08:14:49.891Z,0.60
2024-04-07T08:15:49.916Z,0.70
2024-04-07T08:16:49.902Z,0.80
2024-04-07T08:17:49.886Z,0.70
2024-04-07T08:18:49.873Z,0.70
2024-04-07T08:19:49.904Z,0.80
2024-04-07T08:20:49.836Z,0.90
2024-04-07T08:21:49.856Z,0.60
2024-04-07T08:22:49.815Z,0.50
2024-04-07T08:23:49.853Z,0.50
2024-04-07T08:24:49.827Z,0.40
2024-04-07T08:25:49.787Z,1.10
2024-04-07T08:26:49.775Z,0.60
2024-04-07T08:27:49.821Z,0.50
2024-04-07T08:28:49.765Z,0.50
2024-04-07T08:29:49.741Z,0.30
2024-04-07T08:30:49.754Z,0.50
2024-04-07T08:31:49.737Z,0.70
2024-04-07T08:32:49.754Z,0.50
2024-04-07T08:33:49.713Z,0.70
2024-04-07T08:34:49.688Z,0.60
2024-04-07T08:35:49.698Z,0.50
2024-04-07T08:36:49.736Z,0.40
2024-04-07T08:37:49.657Z,0.50
2024-04-07T08:38:49.655Z,0.50
2024-04-07T08:39:49.661Z,0.40
2024-04-07T08:40:49.635Z,0.30
2024-04-07T08:41:49.626Z,0.40
2024-04-07T08:42:49.657Z,0.40
2024-04-07T08:43:49.667Z,0.50
2024-04-07T08:44:49.598Z,0.40
2024-04-07T08:45:49.583Z,0.40
2024-04-07T08:46:49.579Z,0.40
2024-04-07T08:47:49.579Z,0.30
2024-04-07T08:48:49.596Z,0.60
2024-04-07T08:49:49.599Z,0.50
2024-04-07T08:50:49.533Z,0.50
2024-04-07T08:51:49.521Z,0.40
2024-04-07T08:52:49.516Z,0.50
2024-04-07T08:53:49.530Z,0.50
2024-04-07T08:54:49.511Z,0.30
2024-04-07T08:55:49.511Z,0.40
2024-04-07T08:56:49.483Z,0.40
2024-04-07T08:57:49.522Z,0.30
2024-04-07T08:58:49.466Z,0.60
2024-04-07T08:59:49.451Z,0.50
2024-04-07T09:00:49.506Z,0.30
2024-04-07T09:01:49.430Z,0.40
2024-04-07T09:02:49.450Z,0.50
2024-04-07T09:03:49.472Z,0.40
2024-04-07T09:04:49.409Z,0.20
2024-04-07T09:05:49.399Z,0.40
2024-04-07T09:06:49.428Z,0.40
2024-04-07T09:07:49.376Z,0.40
2024-04-07T09:08:49.380Z,0.30
2024-04-07T09:09:49.350Z,0.50
2024-04-07T09:10:49.349Z,0.40
2024-04-07T09:11:49.343Z,0.50
2024-04-07T09:12:49.373Z,0.50
2024-04-07T09:13:49.317Z,0.50
2024-04-07T09:14:49.307Z,0.60
2024-04-07T09:15:49.324Z,0.60
2024-04-07T09:16:49.288Z,0.20
2024-04-07T09:17:49.298Z,0.40
2024-04-07T09:18:49.311Z,0.50
2024-04-07T09:19:49.284Z,0.40
2024-04-07T09:20:49.250Z,0.40
2024-04-07T09:21:49.238Z,0.50
2024-04-07T09:22:49.229Z,0.60
2024-04-07T09:23:49.220Z,0.60
2024-04-07T09:24:49.236Z,0.60
2024-04-07T09:25:49.324Z,0.40
2024-04-07T09:26:49.205Z,0.40
2024-04-07T09:27:49.183Z,0.60
2024-04-07T09:28:49.177Z,0.40
2024-04-07T09:29:49.165Z,0.40
2024-04-07T09:30:49.171Z,0.40
2024-04-07T09:31:49.154Z,1.20
2024-04-07T09:32:49.165Z,0.50
2024-04-07T09:33:49.126Z,0.50
2024-04-07T09:34:49.127Z,0.40
2024-04-07T09:35:49.106Z,0.40
2024-04-07T09:36:49.119Z,0.40
2024-04-07T09:37:49.087Z,0.50
2024-04-07T09:38:49.091Z,0.40
2024-04-07T09:39:49.084Z,0.40
2024-04-07T09:40:49.060Z,0.60
2024-04-07T09:41:49.052Z,0.40
2024-04-07T09:42:49.081Z,0.40
2024-04-07T09:43:49.072Z,0.80
2024-04-07T09:44:49.033Z,1.20
2024-04-07T09:45:49.031Z,0.30
2024-04-07T09:46:49.012Z,0.50
2024-04-07T09:47:49.001Z,0.30
2024-04-07T09:48:49.004Z,0.40
2024-04-07T09:49:48.984Z,0.30
2024-04-07T09:50:48.985Z,0.50
2024-04-07T09:51:48.960Z,0.40
2024-04-07T09:52:48.955Z,0.60
2024-04-07T09:53:48.941Z,0.40
2024-04-07T09:54:48.948Z,0.50
2024-04-07T09:55:48.919Z,0.50
2024-04-07T09:56:48.910Z,0.40
2024-04-07T09:57:48.910Z,0.30
2024-04-07T09:58:48.901Z,0.60
2024-04-07T09:59:48.930Z,0.40
2024-04-07T10:00:48.901Z,0.40
2024-04-07T10:01:48.875Z,0.50
2024-04-07T10:02:48.873Z,0.60
2024-04-07T10:03:48.857Z,0.40
2024-04-07T10:04:48.838Z,0.40
2024-04-07T10:05:48.836Z,0.60
2024-04-07T10:06:48.876Z,0.50
2024-04-07T10:07:48.816Z,0.40
2024-04-07T10:08:48.802Z,0.70
2024-04-07T10:09:48.804Z,0.30
2024-04-07T10:10:58.544Z,0.40
2024-04-07T10:11:48.781Z,0.60
2024-04-07T10:12:48.840Z,0.40
2024-04-07T10:13:48.758Z,0.70
2024-04-07T10:14:48.741Z,0.60
2024-04-07T10:15:48.740Z,0.50
2024-04-07T10:16:48.730Z,0.30
2024-04-07T10:17:48.720Z,0.30
2024-04-07T10:18:48.748Z,0.30
2024-04-07T10:19:48.706Z,0.50
2024-04-07T10:20:48.686Z,0.50
2024-04-07T10:21:48.698Z,0.40
2024-04-07T10:22:48.674Z,0.50
2024-04-07T10:23:49.105Z,0.40
2024-04-07T10:24:48.672Z,0.50
2024-04-07T10:25:48.651Z,0.40
2024-04-07T10:26:48.644Z,0.30
2024-04-07T10:27:48.634Z,0.40
2024-04-07T10:28:48.642Z,0.50
2024-04-07T10:29:48.610Z,0.60
2024-04-07T10:30:48.617Z,0.30
2024-04-07T10:31:48.588Z,0.50
2024-04-07T10:32:48.579Z,0.30
2024-04-07T10:33:48.583Z,0.60
2024-04-07T10:34:48.574Z,0.30
2024-04-07T10:35:48.558Z,0.40
2024-04-07T10:36:48.578Z,0.40
2024-04-07T10:37:48.533Z,0.50
2024-04-07T10:38:48.535Z,0.50
2024-04-07T10:39:48.533Z,0.40
2024-04-07T10:40:48.517Z,0.40
2024-04-07T10:41:48.505Z,0.40
2024-04-07T10:42:48.520Z,0.70
2024-04-07T10:43:48.505Z,0.40
2024-04-07T10:44:48.502Z,0.60
2024-04-07T10:45:48.463Z,0.50
2024-04-07T10:46:48.451Z,0.20
2024-04-07T10:47:48.454Z,0.50
2024-04-07T10:48:48.507Z,0.40
2024-04-07T10:49:48.444Z,0.40
2024-04-07T10:50:48.440Z,0.50
2024-04-07T10:51:48.416Z,0.50
2024-04-07T10:52:48.401Z,0.40
2024-04-07T10:53:48.396Z,0.40
2024-04-07T10:54:48.401Z,0.30
2024-04-07T10:55:48.375Z,0.30
2024-04-07T10:56:48.369Z,0.40
2024-04-07T10:57:48.363Z,0.50
2024-04-07T10:58:48.357Z,0.50
2024-04-07T10:59:48.377Z,0.30
2024-04-07T11:00:48.368Z,0.40
2024-04-07T11:01:48.329Z,0.60
2024-04-07T11:02:48.329Z,0.60
2024-04-07T11:03:48.309Z,0.30
2024-04-07T11:04:48.300Z,0.50
2024-04-07T11:05:48.296Z,0.60
2024-04-07T11:06:48.335Z,0.40
2024-04-07T11:07:48.291Z,0.60
2024-04-07T11:08:48.295Z,0.40
2024-04-07T11:09:48.300Z,0.50
2024-04-07T11:10:48.278Z,0.30
2024-04-07T11:11:48.243Z,0.30
2024-04-07T11:12:48.257Z,0.80
2024-04-07T11:13:48.230Z,0.40
2024-04-07T11:14:48.221Z,0.70
2024-04-07T11:15:48.212Z,0.50
2024-04-07T11:16:48.201Z,0.40
2024-04-07T11:17:48.254Z,0.30
2024-04-07T11:18:48.232Z,0.50
2024-04-07T11:19:48.180Z,0.50
2024-04-07T11:20:48.159Z,0.50
2024-04-07T11:21:48.163Z,0.60
2024-04-07T11:22:48.148Z,0.50
2024-04-07T11:23:48.140Z,0.60
2024-04-07T11:24:48.148Z,0.40
2024-04-07T11:25:48.124Z,0.30
2024-04-07T11:26:48.123Z,0.30
2024-04-07T11:27:48.099Z,0.40
2024-04-07T11:28:48.106Z,0.50
2024-04-07T11:29:48.084Z,0.30
2024-04-07T11:30:48.124Z,0.40
2024-04-07T11:31:54.620Z,0.40
2024-04-07T11:32:48.063Z,0.40
2024-04-07T11:33:48.053Z,0.30
2024-04-07T11:34:48.089Z,0.50
2024-04-07T11:35:48.043Z,0.50
2024-04-07T11:36:48.054Z,0.50
2024-04-07T11:37:48.010Z,0.60
2024-04-07T11:38:47.999Z,0.40
2024-04-07T11:39:56.702Z,0.40
2024-04-07T11:40:48.011Z,0.40
2024-04-07T11:41:47.976Z,0.60
2024-04-07T11:42:47.984Z,0.40
2024-04-07T11:43:47.969Z,0.70
2024-04-07T11:44:47.985Z,0.30
2024-04-07T11:45:47.970Z,0.40
2024-04-07T11:46:47.929Z,0.40
2024-04-07T11:47:47.933Z,0.30
2024-04-07T11:48:47.935Z,0.40
2024-04-07T11:49:47.908Z,0.40
2024-04-07T11:50:47.918Z,0.60
2024-04-07T11:51:47.888Z,0.80
2024-04-07T11:52:47.876Z,0.50
2024-04-07T11:53:47.894Z,0.20
2024-04-07T11:54:47.905Z,0.30
2024-04-07T11:55:47.848Z,0.70
2024-04-07T11:56:47.865Z,0.50
2024-04-07T11:57:47.833Z,0.40
2024-04-07T11:58:47.832Z,0.60
2024-04-07T11:59:47.843Z,0.60
2024-04-07T12:00:47.825Z,0.40
2024-04-07T12:01:47.804Z,0.50
2024-04-07T12:02:47.812Z,0.40
2024-04-07T12:03:47.784Z,0.70
2024-04-07T12:04:47.769Z,0.40
2024-04-07T12:05:47.780Z,0.30
2024-04-07T12:06:47.765Z,0.40
2024-04-07T12:07:47.744Z,0.60
2024-04-07T12:08:47.736Z,0.30
2024-04-07T12:09:47.730Z,0.40
2024-04-07T12:10:47.727Z,0.50
2024-04-07T12:11:47.707Z,0.40
2024-04-07T12:12:47.762Z,0.40
2024-04-07T12:13:47.693Z,0.60
2024-04-07T12:14:47.688Z,0.50
2024-04-07T12:15:47.676Z,0.80
2024-04-07T12:16:47.664Z,0.60
2024-04-07T12:17:47.693Z,0.60
2024-04-07T12:18:47.670Z,0.50
2024-04-07T12:19:47.664Z,0.40
2024-04-07T12:20:47.647Z,0.40
2024-04-07T12:21:47.619Z,0.40
2024-04-07T12:22:47.616Z,0.40
2024-04-07T12:23:47.608Z,0.40
2024-04-07T12:24:47.630Z,0.40
2024-04-07T12:25:47.590Z,0.60
2024-04-07T12:26:47.589Z,0.40
2024-04-07T12:27:47.590Z,0.50
2024-04-07T12:28:47.578Z,0.60
2024-04-07T12:29:47.563Z,0.60
2024-04-07T12:30:47.569Z,0.60
2024-04-07T12:31:49.308Z,0.60
2024-04-07T12:32:47.534Z,0.40
2024-04-07T12:33:47.533Z,0.70
2024-04-07T12:34:47.520Z,0.50
2024-04-07T12:35:47.553Z,0.50
2024-04-07T12:36:47.578Z,0.50
2024-04-07T12:37:49.185Z,0.50
2024-04-07T12:38:47.493Z,0.50
2024-04-07T12:39:47.478Z,0.60
2024-04-07T12:40:47.498Z,0.60
2024-04-07T12:41:47.466Z,0.60
2024-04-07T12:42:47.488Z,0.50
2024-04-07T12:43:49.124Z,0.50
2024-04-07T12:44:47.443Z,0.40
2024-04-07T12:45:47.438Z,0.40
2024-04-07T12:46:47.424Z,0.40
2024-04-07T12:47:47.450Z,0.40
2024-04-07T12:48:47.431Z,0.70
2024-04-07T12:49:47.409Z,0.70
2024-04-07T12:50:47.402Z,0.50
2024-04-07T12:51:47.407Z,0.60
2024-04-07T12:52:47.399Z,0.40
2024-04-07T12:53:47.392Z,0.60
2024-04-07T12:54:47.378Z,0.60
2024-04-07T12:55:47.365Z,0.50
2024-04-07T12:56:47.372Z,0.40
2024-04-07T12:57:47.341Z,0.40
2024-04-07T12:58:47.335Z,0.30
2024-04-07T12:59:47.320Z,0.70
2024-04-07T13:00:47.346Z,0.50
2024-04-07T13:01:47.312Z,0.50
2024-04-07T13:02:47.339Z,0.70
2024-04-07T13:03:47.289Z,0.30
2024-04-07T13:04:47.304Z,0.50
2024-04-07T13:05:47.283Z,0.40
2024-04-07T13:06:47.286Z,0.70
2024-04-07T13:07:47.279Z,0.50
2024-04-07T13:08:47.253Z,0.50
2024-04-07T13:09:47.245Z,0.40
2024-04-07T13:10:47.276Z,0.60
2024-04-07T13:11:47.225Z,0.50
2024-04-07T13:12:47.243Z,0.70
2024-04-07T13:13:47.210Z,0.60
2024-04-07T13:14:51.209Z,0.60
2024-04-07T13:15:47.197Z,0.60
2024-04-07T13:16:47.196Z,0.40
2024-04-07T13:17:47.182Z,0.50
2024-04-07T13:18:47.206Z,0.70